sensor_id;sensor_type;location;lat;lon;timestamp;temperature;humidity
4002;DHT22;2015;48.670;9.060;2022-10-17T04:00:35;11.50;99.90
4002;DHT22;2015;48.670;9.060;2022-10-17T04:03:07;11.50;99.90
4002;DHT22;2015;48.670;9.060;2022-10-17T04:05:38;11.50;99.90
4002;DHT22;2015;48.670;9.060;2022-10-17T04:08:10;11.50;99.90
4002;DHT22;2015;48.670;9.060;2022-10-17T04:10:42;11.40;99.90
4002;DHT22;2015;48.670;9.060;2022-10-17T04:13:14;11.40;99.90
4002;DHT22;2015;48.670;9.060;2022-10-17T04:16:07;11.40;99.90
4002;DHT22;2015;48.670;9.060;2022-10-17T04:18:39;11.40;99.90
4002;DHT22;2015;48.670;9.060;2022-10-17T04:21:11;11.40;99.90
4002;DHT22;2015;48.670;9.060;2022-10-17T04:23:43;11.40;99.90
4002;DHT22;2015;48.670;9.060;2022-10-17T04:26:15;11.40;99.90
4002;DHT22;2015;48.670;9.060;2022-10-17T04:28:46;11.40;99.90
4002;DHT22;2015;48.670;9.060;2022-10-17T04:31:18;11.40;99.90
4002;DHT22;2015;48.670;9.060;2022-10-17T04:33:51;11.40;99.90
4002;DHT22;2015;48.670;9.060;2022-10-17T04:36:23;11.40;99.90
4002;DHT22;2015;48.670;9.060;2022-10-17T04:38:55;11.40;99.90
4002;DHT22;2015;48.670;9.060;2022-10-17T04:41:26;11.40;99.90
4002;DHT22;2015;48.670;9.060;2022-10-17T04:43:59;11.30;99.90
4002;DHT22;2015;48.670;9.060;2022-10-17T04:46:32;11.30;99.90
4002;DHT22;2015;48.670;9.060;2022-10-17T04:49:04;11.30;99.90
4002;DHT22;2015;48.670;9.060;2022-10-17T04:51:37;11.30;99.90
4002;DHT22;2015;48.670;9.060;2022-10-17T04:54:09;11.30;99.90
4002;DHT22;2015;48.670;9.060;2022-10-17T04:56:40;11.30;99.90
4002;DHT22;2015;48.670;9.060;2022-10-17T04:59:12;11.30;99.90
4002;DHT22;2015;48.670;9.060;2022-10-17T05:01:44;11.30;99.90
4002;DHT22;2015;48.670;9.060;2022-10-17T05:04:15;11.30;99.90
4002;DHT22;2015;48.670;9.060;2022-10-17T05:06:53;11.20;99.90
4002;DHT22;2015;48.670;9.060;2022-10-17T05:09:24;11.30;99.90
4002;DHT22;2015;48.670;9.060;2022-10-17T05:11:56;11.20;99.90
4002;DHT22;2015;48.670;9.060;2022-10-17T05:14:28;11.30;99.90
4002;DHT22;2015;48.670;9.060;2022-10-17T05:17:00;11.30;99.90
4002;DHT22;2015;48.670;9.060;2022-10-17T05:19:32;11.30;99.90
4002;DHT22;2015;48.670;9.060;2022-10-17T05:22:03;11.30;99.90
4002;DHT22;2015;48.670;9.060;2022-10-17T05:24:35;11.30;99.90
4002;DHT22;2015;48.670;9.060;2022-10-17T05:27:07;11.30;99.90
4002;DHT22;2015;48.670;9.060;2022-10-17T05:29:38;11.30;99.90
4002;DHT22;2015;48.670;9.060;2022-10-17T05:32:11;11.30;99.90
4002;DHT22;2015;48.670;9.060;2022-10-17T05:34:43;11.30;99.90
4002;DHT22;2015;48.670;9.060;2022-10-17T05:37:15;11.40;99.90
4002;DHT22;2015;48.670;9.060;2022-10-17T05:39:46;11.40;99.90
4002;DHT22;2015;48.670;9.060;2022-10-17T05:42:23;11.40;99.90
4002;DHT22;2015;48.670;9.060;2022-10-17T05:44:55;11.40;99.90
4002;DHT22;2015;48.670;9.060;2022-10-17T05:47:27;11.40;99.90
4002;DHT22;2015;48.670;9.060;2022-10-17T05:49:59;11.40;99.90
4002;DHT22;2015;48.670;9.060;2022-10-17T05:52:31;11.40;99.90
4002;DHT22;2015;48.670;9.060;2022-10-17T05:55:04;11.40;99.90
4002;DHT22;2015;48.670;9.060;2022-10-17T05:57:36;11.30;99.90
4002;DHT22;2015;48.670;9.060;2022-10-17T06:00:08;11.40;99.90
4002;DHT22;2015;48.670;9.060;2022-10-17T06:02:41;11.30;99.90
4002;DHT22;2015;48.670;9.060;2022-10-17T06:05:13;11.30;99.90
4002;DHT22;2015;48.670;9.060;2022-10-17T06:07:45;11.30;99.90
4002;DHT22;2015;48.670;9.060;2022-10-17T06:10:18;11.30;99.90
4002;DHT22;2015;48.670;9.060;2022-10-17T06:12:50;11.40;99.90
4002;DHT22;2015;48.670;9.060;2022-10-17T06:15:22;11.30;99.90
4002;DHT22;2015;48.670;9.060;2022-10-17T06:17:53;11.30;99.90
4002;DHT22;2015;48.670;9.060;2022-10-17T06:20:25;11.40;99.90
4002;DHT22;2015;48.670;9.060;2022-10-17T06:22:57;11.40;99.90
4002;DHT22;2015;48.670;9.060;2022-10-17T06:25:32;11.40;99.90
4002;DHT22;2015;48.670;9.060;2022-10-17T06:28:04;11.60;99.90
4002;DHT22;2015;48.670;9.060;2022-10-17T06:30:39;11.70;99.90
4002;DHT22;2015;48.670;9.060;2022-10-17T06:33:11;11.80;99.90
4002;DHT22;2015;48.670;9.060;2022-10-17T06:35:43;11.80;99.90
4002;DHT22;2015;48.670;9.060;2022-10-17T06:38:21;11.80;99.90
4002;DHT22;2015;48.670;9.060;2022-10-17T06:40:53;11.70;99.90
4002;DHT22;2015;48.670;9.060;2022-10-17T06:43:27;11.70;99.90
4002;DHT22;2015;48.670;9.060;2022-10-17T06:45:59;11.60;99.90
4002;DHT22;2015;48.670;9.060;2022-10-17T06:48:31;11.60;99.90
4002;DHT22;2015;48.670;9.060;2022-10-17T06:51:05;11.70;99.90
4002;DHT22;2015;48.670;9.060;2022-10-17T06:53:39;11.70;99.90
4002;DHT22;2015;48.670;9.060;2022-10-17T06:56:11;11.70;99.90
4002;DHT22;2015;48.670;9.060;2022-10-17T06:58:42;11.80;99.90
4002;DHT22;2015;48.670;9.060;2022-10-17T07:01:14;11.80;99.90
4002;DHT22;2015;48.670;9.060;2022-10-17T07:03:47;11.90;99.90
4002;DHT22;2015;48.670;9.060;2022-10-17T07:06:19;11.90;99.90
4002;DHT22;2015;48.670;9.060;2022-10-17T07:08:51;12.00;99.90
4002;DHT22;2015;48.670;9.060;2022-10-17T07:11:23;12.00;99.90
4002;DHT22;2015;48.670;9.060;2022-10-17T07:13:56;12.10;99.90
4002;DHT22;2015;48.670;9.060;2022-10-17T07:16:28;12.20;99.90
4002;DHT22;2015;48.670;9.060;2022-10-17T07:18:59;12.30;99.90
4002;DHT22;2015;48.670;9.060;2022-10-17T07:21:31;12.40;99.90
4002;DHT22;2015;48.670;9.060;2022-10-17T07:24:09;12.50;99.90
4002;DHT22;2015;48.670;9.060;2022-10-17T07:26:41;12.60;99.90
4002;DHT22;2015;48.670;9.060;2022-10-17T07:29:13;12.70;99.90
4002;DHT22;2015;48.670;9.060;2022-10-17T07:31:44;12.80;99.90
4002;DHT22;2015;48.670;9.060;2022-10-17T07:34:19;12.90;99.90
4002;DHT22;2015;48.670;9.060;2022-10-17T07:36:51;13.00;99.90
4002;DHT22;2015;48.670;9.060;2022-10-17T07:39:24;13.10;99.90
4002;DHT22;2015;48.670;9.060;2022-10-17T07:41:57;13.20;99.90
4002;DHT22;2015;48.670;9.060;2022-10-17T07:44:29;13.30;99.90
4002;DHT22;2015;48.670;9.060;2022-10-17T07:47:01;13.40;99.90
4002;DHT22;2015;48.670;9.060;2022-10-17T07:49:33;13.50;99.90
4002;DHT22;2015;48.670;9.060;2022-10-17T07:52:14;13.60;99.90
4002;DHT22;2015;48.670;9.060;2022-10-17T07:54:46;13.70;99.90
4002;DHT22;2015;48.670;9.060;2022-10-17T07:57:17;14.00;99.90
4002;DHT22;2015;48.670;9.060;2022-10-17T07:59:49;14.50;99.90
4002;DHT22;2015;48.670;9.060;2022-10-17T08:02:24;14.80;99.90
4002;DHT22;2015;48.670;9.060;2022-10-17T08:04:56;15.10;99.90
4002;DHT22;2015;48.670;9.060;2022-10-17T08:07:29;15.40;99.90
4002;DHT22;2015;48.670;9.060;2022-10-17T08:10:01;15.50;99.90
4002;DHT22;2015;48.670;9.060;2022-10-17T08:12:33;15.80;99.90
4002;DHT22;2015;48.670;9.060;2022-10-17T08:15:07;16.00;99.90
4002;DHT22;2015;48.670;9.060;2022-10-17T08:17:39;16.20;99.90
4002;DHT22;2015;48.670;9.060;2022-10-17T08:20:11;16.30;99.90
4002;DHT22;2015;48.670;9.060;2022-10-17T08:22:51;16.40;99.90
4002;DHT22;2015;48.670;9.060;2022-10-17T08:25:23;16.50;99.90
4002;DHT22;2015;48.670;9.060;2022-10-17T08:27:55;16.60;99.90
4002;DHT22;2015;48.670;9.060;2022-10-17T08:30:28;16.70;99.90
4002;DHT22;2015;48.670;9.060;2022-10-17T08:33:03;16.70;99.90
4002;DHT22;2015;48.670;9.060;2022-10-17T08:35:36;16.80;99.90
4002;DHT22;2015;48.670;9.060;2022-10-17T08:38:08;16.80;99.90
4002;DHT22;2015;48.670;9.060;2022-10-17T08:40:48;16.90;99.90
4002;DHT22;2015;48.670;9.060;2022-10-17T08:46:33;17.20;99.90
4002;DHT22;2015;48.670;9.060;2022-10-17T08:50:11;17.30;99.90
4002;DHT22;2015;48.670;9.060;2022-10-17T08:55:43;17.70;99.90
4002;DHT22;2015;48.670;9.060;2022-10-17T08:58:22;17.80;99.90
4002;DHT22;2015;48.670;9.060;2022-10-17T09:10:43;18.60;99.90
4002;DHT22;2015;48.670;9.060;2022-10-17T09:21:55;19.80;99.90
4002;DHT22;2015;48.670;9.060;2022-10-17T09:24:56;20.20;99.90
4002;DHT22;2015;48.670;9.060;2022-10-17T09:27:46;20.90;99.90
4002;DHT22;2015;48.670;9.060;2022-10-17T09:30:33;21.90;99.90
4002;DHT22;2015;48.670;9.060;2022-10-17T09:33:31;22.80;99.90
4002;DHT22;2015;48.670;9.060;2022-10-17T09:36:31;23.70;99.90
4002;DHT22;2015;48.670;9.060;2022-10-17T09:39:16;24.20;99.90
4002;DHT22;2015;48.670;9.060;2022-10-17T09:41:52;24.30;99.90
4002;DHT22;2015;48.670;9.060;2022-10-17T09:44:31;24.60;99.90
4002;DHT22;2015;48.670;9.060;2022-10-17T09:50:25;24.70;99.90
4002;DHT22;2015;48.670;9.060;2022-10-17T09:53:14;24.70;99.90
4002;DHT22;2015;48.670;9.060;2022-10-17T09:55:58;24.90;99.90
4002;DHT22;2015;48.670;9.060;2022-10-17T10:01:17;25.40;99.90
4002;DHT22;2015;48.670;9.060;2022-10-17T10:04:15;25.50;99.90
4002;DHT22;2015;48.670;9.060;2022-10-17T10:07:02;26.00;99.90
4002;DHT22;2015;48.670;9.060;2022-10-17T10:09:35;26.80;99.90
4002;DHT22;2015;48.670;9.060;2022-10-17T10:12:22;26.80;99.90
4002;DHT22;2015;48.670;9.060;2022-10-17T10:14:55;26.40;99.90
4002;DHT22;2015;48.670;9.060;2022-10-17T10:17:36;26.40;99.90
4002;DHT22;2015;48.670;9.060;2022-10-17T10:20:28;26.30;99.90
4002;DHT22;2015;48.670;9.060;2022-10-17T10:23:16;26.60;99.90
4002;DHT22;2015;48.670;9.060;2022-10-17T10:25:58;26.30;99.90
4002;DHT22;2015;48.670;9.060;2022-10-17T10:28:33;26.30;99.90
4002;DHT22;2015;48.670;9.060;2022-10-17T10:31:07;26.20;99.90
4002;DHT22;2015;48.670;9.060;2022-10-17T10:33:41;25.90;99.90
4002;DHT22;2015;48.670;9.060;2022-10-17T10:36:19;25.60;99.90
4002;DHT22;2015;48.670;9.060;2022-10-17T10:38:55;26.00;99.90
4002;DHT22;2015;48.670;9.060;2022-10-17T10:41:48;26.70;99.90
4002;DHT22;2015;48.670;9.060;2022-10-17T10:44:23;27.20;99.90
4002;DHT22;2015;48.670;9.060;2022-10-17T10:47:29;27.50;99.90
4002;DHT22;2015;48.670;9.060;2022-10-17T10:50:35;27.50;99.80
4002;DHT22;2015;48.670;9.060;2022-10-17T10:53:28;27.40;99.60
4002;DHT22;2015;48.670;9.060;2022-10-17T10:56:30;27.40;99.90
4002;DHT22;2015;48.670;9.060;2022-10-17T11:02:11;27.20;99.90
4002;DHT22;2015;48.670;9.060;2022-10-17T11:07:52;27.10;99.90
4002;DHT22;2015;48.670;9.060;2022-10-17T11:10:34;27.40;99.60
4002;DHT22;2015;48.670;9.060;2022-10-17T11:13:25;27.60;99.30
4002;DHT22;2015;48.670;9.060;2022-10-17T11:24:52;25.10;99.90
4002;DHT22;2015;48.670;9.060;2022-10-17T11:27:29;24.40;99.90
4002;DHT22;2015;48.670;9.060;2022-10-17T11:30:02;24.10;99.90
4002;DHT22;2015;48.670;9.060;2022-10-17T11:32:51;24.00;99.90
4002;DHT22;2015;48.670;9.060;2022-10-17T11:40:58;23.60;99.90
4002;DHT22;2015;48.670;9.060;2022-10-17T11:43:49;23.70;99.90
4002;DHT22;2015;48.670;9.060;2022-10-17T11:46:25;23.80;99.90
4002;DHT22;2015;48.670;9.060;2022-10-17T11:49:14;23.80;99.90
4002;DHT22;2015;48.670;9.060;2022-10-17T11:55:16;23.60;99.90
4002;DHT22;2015;48.670;9.060;2022-10-17T12:12:03;23.60;99.90
4002;DHT22;2015;48.670;9.060;2022-10-17T12:14:39;23.50;99.90
4002;DHT22;2015;48.670;9.060;2022-10-17T12:17:31;23.50;99.90
4002;DHT22;2015;48.670;9.060;2022-10-17T12:25:53;23.70;99.90
4002;DHT22;2015;48.670;9.060;2022-10-17T12:33:48;23.60;99.90
4002;DHT22;2015;48.670;9.060;2022-10-17T12:54:57;23.80;99.90
4002;DHT22;2015;48.670;9.060;2022-10-17T12:57:55;23.90;99.90
4002;DHT22;2015;48.670;9.060;2022-10-17T13:00:53;23.80;99.90
4002;DHT22;2015;48.670;9.060;2022-10-17T13:03:47;23.70;99.90
4002;DHT22;2015;48.670;9.060;2022-10-17T13:06:26;23.70;99.90
4002;DHT22;2015;48.670;9.060;2022-10-17T13:11:48;23.70;99.90
4002;DHT22;2015;48.670;9.060;2022-10-17T13:14:21;23.60;99.90
4002;DHT22;2015;48.670;9.060;2022-10-17T13:16:55;23.50;99.90
4002;DHT22;2015;48.670;9.060;2022-10-17T13:19:30;23.60;99.90
4002;DHT22;2015;48.670;9.060;2022-10-17T13:22:30;23.50;99.90
4002;DHT22;2015;48.670;9.060;2022-10-17T13:25:07;23.30;99.90
4002;DHT22;2015;48.670;9.060;2022-10-17T13:27:40;23.20;99.90
4002;DHT22;2015;48.670;9.060;2022-10-17T13:30:27;23.20;99.90
4002;DHT22;2015;48.670;9.060;2022-10-17T13:33:09;23.20;99.90
4002;DHT22;2015;48.670;9.060;2022-10-17T13:35:47;23.10;99.90
4002;DHT22;2015;48.670;9.060;2022-10-17T13:38:35;23.00;99.90
4002;DHT22;2015;48.670;9.060;2022-10-17T13:41:14;23.00;99.90
4002;DHT22;2015;48.670;9.060;2022-10-17T13:44:26;22.90;99.90
4002;DHT22;2015;48.670;9.060;2022-10-17T13:46:59;22.80;99.90
4002;DHT22;2015;48.670;9.060;2022-10-17T13:49:41;22.70;99.90
4002;DHT22;2015;48.670;9.060;2022-10-17T13:52:19;22.60;99.90
4002;DHT22;2015;48.670;9.060;2022-10-17T13:54:52;22.70;99.90
4002;DHT22;2015;48.670;9.060;2022-10-17T13:57:29;22.60;99.90
4002;DHT22;2015;48.670;9.060;2022-10-17T14:00:21;22.40;99.90
4002;DHT22;2015;48.670;9.060;2022-10-17T14:02:53;22.30;99.90
4002;DHT22;2015;48.670;9.060;2022-10-17T14:05:25;22.30;99.90
4002;DHT22;2015;48.670;9.060;2022-10-17T14:08:00;22.30;99.90
4002;DHT22;2015;48.670;9.060;2022-10-17T14:10:52;22.20;99.90
4002;DHT22;2015;48.670;9.060;2022-10-17T14:13:26;22.30;99.90
4002;DHT22;2015;48.670;9.060;2022-10-17T14:16:00;22.50;99.90
4002;DHT22;2015;48.670;9.060;2022-10-17T14:18:34;22.60;99.90
4002;DHT22;2015;48.670;9.060;2022-10-17T14:21:09;22.50;99.90
4002;DHT22;2015;48.670;9.060;2022-10-17T14:24:28;22.30;99.90
4002;DHT22;2015;48.670;9.060;2022-10-17T14:27:00;22.10;99.90
4002;DHT22;2015;48.670;9.060;2022-10-17T14:29:51;21.90;99.90
4002;DHT22;2015;48.670;9.060;2022-10-17T14:32:23;21.80;99.90
4002;DHT22;2015;48.670;9.060;2022-10-17T14:34:57;21.80;99.90
4002;DHT22;2015;48.670;9.060;2022-10-17T14:37:51;21.90;99.90
4002;DHT22;2015;48.670;9.060;2022-10-17T14:40:25;21.70;99.90
4002;DHT22;2015;48.670;9.060;2022-10-17T14:43:03;21.60;99.90
4002;DHT22;2015;48.670;9.060;2022-10-17T14:45:37;21.50;99.90
4002;DHT22;2015;48.670;9.060;2022-10-17T14:48:20;21.30;99.90
4002;DHT22;2015;48.670;9.060;2022-10-17T14:51:09;21.10;99.90
4002;DHT22;2015;48.670;9.060;2022-10-17T14:53:42;20.90;99.90
4002;DHT22;2015;48.670;9.060;2022-10-17T14:56:23;20.90;99.90
4002;DHT22;2015;48.670;9.060;2022-10-17T14:58:56;20.70;99.90
4002;DHT22;2015;48.670;9.060;2022-10-17T15:01:28;20.60;99.90
4002;DHT22;2015;48.670;9.060;2022-10-17T15:03:59;20.50;99.90
4002;DHT22;2015;48.670;9.060;2022-10-17T15:06:33;20.30;99.90
4002;DHT22;2015;48.670;9.060;2022-10-17T15:09:05;20.20;99.90
4002;DHT22;2015;48.670;9.060;2022-10-17T15:11:37;20.00;99.90
4002;DHT22;2015;48.670;9.060;2022-10-17T15:14:09;19.90;99.90
4002;DHT22;2015;48.670;9.060;2022-10-17T15:16:40;19.70;99.90
4002;DHT22;2015;48.670;9.060;2022-10-17T15:19:12;19.60;99.90
4002;DHT22;2015;48.670;9.060;2022-10-17T15:21:44;19.50;99.90
4002;DHT22;2015;48.670;9.060;2022-10-17T15:24:18;19.40;99.90
4002;DHT22;2015;48.670;9.060;2022-10-17T15:26:49;19.30;99.90
4002;DHT22;2015;48.670;9.060;2022-10-17T15:29:21;19.30;99.90
4002;DHT22;2015;48.670;9.060;2022-10-17T15:31:53;19.20;99.90
4002;DHT22;2015;48.670;9.060;2022-10-17T15:34:25;19.10;99.90
4002;DHT22;2015;48.670;9.060;2022-10-17T15:36:56;19.00;99.90
4002;DHT22;2015;48.670;9.060;2022-10-17T15:39:29;19.00;99.90
4002;DHT22;2015;48.670;9.060;2022-10-17T15:42:01;18.90;99.90
4002;DHT22;2015;48.670;9.060;2022-10-17T15:44:32;18.80;99.90
4002;DHT22;2015;48.670;9.060;2022-10-17T15:47:04;18.70;99.90
4002;DHT22;2015;48.670;9.060;2022-10-17T15:49:36;18.70;99.90
4002;DHT22;2015;48.670;9.060;2022-10-17T15:52:08;18.60;99.90
4002;DHT22;2015;48.670;9.060;2022-10-17T15:54:40;18.50;99.90
4002;DHT22;2015;48.670;9.060;2022-10-17T15:57:20;18.50;99.90
4002;DHT22;2015;48.670;9.060;2022-10-17T15:59:53;18.40;99.90
4002;DHT22;2015;48.670;9.060;2022-10-17T16:02:26;18.30;99.90
4002;DHT22;2015;48.670;9.060;2022-10-17T16:04:58;18.20;99.90
4002;DHT22;2015;48.670;9.060;2022-10-17T16:07:30;18.20;99.90
4002;DHT22;2015;48.670;9.060;2022-10-17T16:10:02;18.10;99.90
4002;DHT22;2015;48.670;9.060;2022-10-17T16:12:34;18.00;99.90
4002;DHT22;2015;48.670;9.060;2022-10-17T16:17:48;17.80;99.90
4002;DHT22;2015;48.670;9.060;2022-10-17T16:20:22;17.70;99.90
4002;DHT22;2015;48.670;9.060;2022-10-17T16:22:53;17.50;99.90
4002;DHT22;2015;48.670;9.060;2022-10-17T16:25:31;17.40;99.90
4002;DHT22;2015;48.670;9.060;2022-10-17T16:28:03;17.30;99.90
4002;DHT22;2015;48.670;9.060;2022-10-17T16:30:42;17.20;99.90
4002;DHT22;2015;48.670;9.060;2022-10-17T16:33:15;17.10;99.90
4002;DHT22;2015;48.670;9.060;2022-10-17T16:35:47;17.10;99.90
4002;DHT22;2015;48.670;9.060;2022-10-17T16:38:19;17.00;99.90
4002;DHT22;2015;48.670;9.060;2022-10-17T16:40:51;16.90;99.90
4002;DHT22;2015;48.670;9.060;2022-10-17T16:43:23;16.90;99.90
4002;DHT22;2015;48.670;9.060;2022-10-17T16:45:55;16.80;99.90
4002;DHT22;2015;48.670;9.060;2022-10-17T16:48:26;16.70;99.90
4002;DHT22;2015;48.670;9.060;2022-10-17T16:51:01;16.70;99.90
4002;DHT22;2015;48.670;9.060;2022-10-17T16:53:32;16.60;99.90
4002;DHT22;2015;48.670;9.060;2022-10-17T16:56:05;16.60;99.90
4002;DHT22;2015;48.670;9.060;2022-10-17T16:58:39;16.50;99.90
4002;DHT22;2015;48.670;9.060;2022-10-17T17:01:13;16.50;99.90
4002;DHT22;2015;48.670;9.060;2022-10-17T17:03:46;16.50;99.90
4002;DHT22;2015;48.670;9.060;2022-10-17T17:06:23;16.40;99.90
4002;DHT22;2015;48.670;9.060;2022-10-17T17:08:56;16.40;99.90
4002;DHT22;2015;48.670;9.060;2022-10-17T17:11:28;16.30;99.90
4002;DHT22;2015;48.670;9.060;2022-10-17T17:14:01;16.20;99.90
4002;DHT22;2015;48.670;9.060;2022-10-17T17:16:34;16.10;99.90
4002;DHT22;2015;48.670;9.060;2022-10-17T17:19:09;16.10;99.90
4002;DHT22;2015;48.670;9.060;2022-10-17T17:21:42;16.00;99.90
4002;DHT22;2015;48.670;9.060;2022-10-17T17:24:20;15.90;99.90
4002;DHT22;2015;48.670;9.060;2022-10-17T17:26:54;15.90;99.90
4002;DHT22;2015;48.670;9.060;2022-10-17T17:29:26;15.80;99.90
4002;DHT22;2015;48.670;9.060;2022-10-17T17:31:57;15.80;99.90
4002;DHT22;2015;48.670;9.060;2022-10-17T17:34:29;15.80;99.90
4002;DHT22;2015;48.670;9.060;2022-10-17T17:37:03;15.70;99.90
4002;DHT22;2015;48.670;9.060;2022-10-17T17:39:35;15.70;99.90
4002;DHT22;2015;48.670;9.060;2022-10-17T17:42:06;15.60;99.90
4002;DHT22;2015;48.670;9.060;2022-10-17T17:44:38;15.60;99.90
4002;DHT22;2015;48.670;9.060;2022-10-17T17:47:10;15.60;99.90
4002;DHT22;2015;48.670;9.060;2022-10-17T17:49:41;15.60;99.90
4002;DHT22;2015;48.670;9.060;2022-10-17T17:52:13;15.60;99.90
4002;DHT22;2015;48.670;9.060;2022-10-17T17:54:45;15.60;99.90
4002;DHT22;2015;48.670;9.060;2022-10-17T17:57:17;15.50;99.90
4002;DHT22;2015;48.670;9.060;2022-10-17T17:59:49;15.50;99.90
4002;DHT22;2015;48.670;9.060;2022-10-17T18:02:20;15.50;99.90
4002;DHT22;2015;48.670;9.060;2022-10-17T18:04:52;15.50;99.90
4002;DHT22;2015;48.670;9.060;2022-10-17T18:07:24;15.50;99.90
4002;DHT22;2015;48.670;9.060;2022-10-17T18:09:56;15.40;99.90
4002;DHT22;2015;48.670;9.060;2022-10-17T18:12:28;15.40;99.90
4002;DHT22;2015;48.670;9.060;2022-10-17T18:15:01;15.40;99.90
4002;DHT22;2015;48.670;9.060;2022-10-17T18:17:34;15.30;99.90
4002;DHT22;2015;48.670;9.060;2022-10-17T18:20:06;15.30;99.90
4002;DHT22;2015;48.670;9.060;2022-10-17T18:22:38;15.30;99.90
4002;DHT22;2015;48.670;9.060;2022-10-17T18:25:10;15.30;99.90
4002;DHT22;2015;48.670;9.060;2022-10-17T18:27:42;15.20;99.90
4002;DHT22;2015;48.670;9.060;2022-10-17T18:30:14;15.20;99.90
4002;DHT22;2015;48.670;9.060;2022-10-17T18:32:46;15.10;99.90
4002;DHT22;2015;48.670;9.060;2022-10-17T18:35:18;15.10;99.90
4002;DHT22;2015;48.670;9.060;2022-10-17T18:37:50;15.10;99.90
4002;DHT22;2015;48.670;9.060;2022-10-17T18:40:22;15.00;99.90
4002;DHT22;2015;48.670;9.060;2022-10-17T18:42:53;15.00;99.90
4002;DHT22;2015;48.670;9.060;2022-10-17T18:45:25;15.00;99.90
4002;DHT22;2015;48.670;9.060;2022-10-17T18:47:57;14.90;99.90
4002;DHT22;2015;48.670;9.060;2022-10-17T18:50:29;14.90;99.90
4002;DHT22;2015;48.670;9.060;2022-10-17T18:53:01;14.90;99.90
4002;DHT22;2015;48.670;9.060;2022-10-17T18:55:32;14.90;99.90
4002;DHT22;2015;48.670;9.060;2022-10-17T18:58:04;14.80;99.90
4002;DHT22;2015;48.670;9.060;2022-10-17T19:00:36;14.80;99.90
4002;DHT22;2015;48.670;9.060;2022-10-17T19:03:08;14.80;99.90
4002;DHT22;2015;48.670;9.060;2022-10-17T19:05:40;14.80;99.90
4002;DHT22;2015;48.670;9.060;2022-10-17T19:08:13;14.70;99.90
4002;DHT22;2015;48.670;9.060;2022-10-17T19:10:45;14.70;99.90
4002;DHT22;2015;48.670;9.060;2022-10-17T19:13:17;14.70;99.90
4002;DHT22;2015;48.670;9.060;2022-10-17T19:15:52;14.70;99.90
4002;DHT22;2015;48.670;9.060;2022-10-17T19:18:24;14.60;99.90
4002;DHT22;2015;48.670;9.060;2022-10-17T19:21:04;14.60;99.90
4002;DHT22;2015;48.670;9.060;2022-10-17T19:23:37;14.60;99.90
4002;DHT22;2015;48.670;9.060;2022-10-17T19:26:11;14.50;99.90
4002;DHT22;2015;48.670;9.060;2022-10-17T19:28:43;14.50;99.90
4002;DHT22;2015;48.670;9.060;2022-10-17T19:31:15;14.50;99.90
4002;DHT22;2015;48.670;9.060;2022-10-17T19:33:49;14.50;99.90
4002;DHT22;2015;48.670;9.060;2022-10-17T19:36:25;14.50;99.90
4002;DHT22;2015;48.670;9.060;2022-10-17T19:39:08;14.50;99.90
4002;DHT22;2015;48.670;9.060;2022-10-17T19:41:42;14.40;99.90
4002;DHT22;2015;48.670;9.060;2022-10-17T19:44:15;14.50;99.90
4002;DHT22;2015;48.670;9.060;2022-10-17T19:46:47;14.40;99.90
4002;DHT22;2015;48.670;9.060;2022-10-17T19:49:20;14.40;99.90
4002;DHT22;2015;48.670;9.060;2022-10-17T19:51:51;14.40;99.90
4002;DHT22;2015;48.670;9.060;2022-10-17T19:54:23;14.40;99.90
4002;DHT22;2015;48.670;9.060;2022-10-17T19:56:55;14.40;99.90
4002;DHT22;2015;48.670;9.060;2022-10-17T19:59:27;14.40;99.90
4002;DHT22;2015;48.670;9.060;2022-10-17T20:01:58;14.40;99.90
4002;DHT22;2015;48.670;9.060;2022-10-17T20:04:30;14.40;99.90
4002;DHT22;2015;48.670;9.060;2022-10-17T20:07:02;14.40;99.90
4002;DHT22;2015;48.670;9.060;2022-10-17T20:09:34;14.40;99.90
4002;DHT22;2015;48.670;9.060;2022-10-17T20:12:06;14.30;99.90
4002;DHT22;2015;48.670;9.060;2022-10-17T20:14:37;14.30;99.90
4002;DHT22;2015;48.670;9.060;2022-10-17T20:17:11;14.30;99.90
4002;DHT22;2015;48.670;9.060;2022-10-17T20:19:43;14.30;99.90
4002;DHT22;2015;48.670;9.060;2022-10-17T20:22:15;14.30;99.90
4002;DHT22;2015;48.670;9.060;2022-10-17T20:24:47;14.20;99.90
4002;DHT22;2015;48.670;9.060;2022-10-17T20:27:19;14.20;99.90
4002;DHT22;2015;48.670;9.060;2022-10-17T20:29:57;14.20;99.90
4002;DHT22;2015;48.670;9.060;2022-10-17T20:32:33;14.20;99.90
4002;DHT22;2015;48.670;9.060;2022-10-17T20:35:10;14.10;99.90
4002;DHT22;2015;48.670;9.060;2022-10-17T20:37:42;14.10;99.90
4002;DHT22;2015;48.670;9.060;2022-10-17T20:40:13;14.10;99.90
4002;DHT22;2015;48.670;9.060;2022-10-17T20:43:06;14.10;99.90
4002;DHT22;2015;48.670;9.060;2022-10-17T20:45:41;14.10;99.90
4002;DHT22;2015;48.670;9.060;2022-10-17T20:48:22;14.10;99.90
4002;DHT22;2015;48.670;9.060;2022-10-17T20:50:53;14.00;99.90
4002;DHT22;2015;48.670;9.060;2022-10-17T20:53:25;14.00;99.90
4002;DHT22;2015;48.670;9.060;2022-10-17T20:56:21;13.90;99.90
4002;DHT22;2015;48.670;9.060;2022-10-17T20:58:56;13.90;99.90
4002;DHT22;2015;48.670;9.060;2022-10-17T21:01:29;13.90;99.90
4002;DHT22;2015;48.670;9.060;2022-10-17T21:04:02;13.90;99.90
4002;DHT22;2015;48.670;9.060;2022-10-17T21:06:54;13.90;99.90
4002;DHT22;2015;48.670;9.060;2022-10-17T21:09:26;13.80;99.90
4002;DHT22;2015;48.670;9.060;2022-10-17T21:11:57;13.80;99.90
4002;DHT22;2015;48.670;9.060;2022-10-17T21:14:29;13.70;99.90
4002;DHT22;2015;48.670;9.060;2022-10-17T21:17:01;13.80;99.90
4002;DHT22;2015;48.670;9.060;2022-10-17T21:19:36;13.80;99.90
4002;DHT22;2015;48.670;9.060;2022-10-17T21:22:07;13.70;99.90
4002;DHT22;2015;48.670;9.060;2022-10-17T21:24:39;13.80;99.90
4002;DHT22;2015;48.670;9.060;2022-10-17T21:27:15;13.80;99.90
4002;DHT22;2015;48.670;9.060;2022-10-17T21:29:47;13.80;99.90
4002;DHT22;2015;48.670;9.060;2022-10-17T21:32:18;13.80;99.90
4002;DHT22;2015;48.670;9.060;2022-10-17T21:35:10;13.80;99.90
4002;DHT22;2015;48.670;9.060;2022-10-17T21:37:42;13.80;99.90
4002;DHT22;2015;48.670;9.060;2022-10-17T21:40:14;13.80;99.90
4002;DHT22;2015;48.670;9.060;2022-10-17T21:42:45;13.70;99.90
4002;DHT22;2015;48.670;9.060;2022-10-17T21:45:17;13.70;99.90
4002;DHT22;2015;48.670;9.060;2022-10-17T21:47:56;13.70;99.90
4002;DHT22;2015;48.670;9.060;2022-10-17T21:50:44;13.60;99.90
4002;DHT22;2015;48.670;9.060;2022-10-17T21:53:16;13.60;99.90
4002;DHT22;2015;48.670;9.060;2022-10-17T21:55:47;13.50;99.90
4002;DHT22;2015;48.670;9.060;2022-10-17T21:58:20;13.50;99.90
4002;DHT22;2015;48.670;9.060;2022-10-17T22:00:52;13.50;99.90
4002;DHT22;2015;48.670;9.060;2022-10-17T22:03:23;13.40;99.90
4002;DHT22;2015;48.670;9.060;2022-10-17T22:05:55;13.40;99.90
4002;DHT22;2015;48.670;9.060;2022-10-17T22:08:42;13.40;99.90
4002;DHT22;2015;48.670;9.060;2022-10-17T22:11:17;13.40;99.90
4002;DHT22;2015;48.670;9.060;2022-10-17T22:14:11;13.40;99.90
4002;DHT22;2015;48.670;9.060;2022-10-17T22:16:44;13.40;99.90
4002;DHT22;2015;48.670;9.060;2022-10-17T22:19:20;13.40;99.90
4002;DHT22;2015;48.670;9.060;2022-10-17T22:21:53;13.40;99.90
4002;DHT22;2015;48.670;9.060;2022-10-17T22:24:25;13.40;99.90
4002;DHT22;2015;48.670;9.060;2022-10-17T22:26:57;13.40;99.90
4002;DHT22;2015;48.670;9.060;2022-10-17T22:29:28;13.40;99.90
4002;DHT22;2015;48.670;9.060;2022-10-17T22:32:00;13.40;99.90
4002;DHT22;2015;48.670;9.060;2022-10-17T22:34:32;13.40;99.90
4002;DHT22;2015;48.670;9.060;2022-10-17T22:37:04;13.40;99.90
4002;DHT22;2015;48.670;9.060;2022-10-17T22:39:36;13.40;99.90